Prospector, Canada
Current Conditions -  °F | °C
As of 5:00 PM on Friday 28 Nov 2014 (Local Time) from CYQD Reporting Station
Light Snow Light Snow  
Wind Chill: -30°   Ceiling: 800
Heat Index: -21°   Visibility: 0.75mi
Dew Point: -24°   Wind: 8mph
Humidity: 77%   Direction: 70°ENE
Pressure: 29.93"   Gusts: NA
Location:  52.95°N, 101.27°W
Report Text: CYQD 282300Z 07007KT 3/4SM -SN OVC008 M21/M24 A2993 RMK ST8 SLP168
Loading
Personal Weather Stations






























Interactive Weather Map New forecast layout! Learn more

10-Day Weather Forecast

Advertisements
Track Severe Weather on mobile